Time;durP1;ratioP1;P1;durP2;ratioP2;P2;SDS_P1;SDS_P2;PMS_P1;PMS_P2;Temp;Humidity;BMP_temperature;BMP_pressure;BME280_temperature;BME280_humidity;BME280_pressure;Samples;Min_cycle;Max_cycle;Signal;HPM_P1;HPM_P2
2023/05/16 00:02:36;;;;;;;6.43;2.10;;;;;;;8.59;100.00;101604.34;10527572;28;20134;-82
2023/05/16 00:07:36;;;;;;;8.63;3.05;;;;;;;8.57;100.00;101612.09;10520549;28;20071;-81
2023/05/16 00:12:38;;;;;;;8.48;2.55;;;;;;;8.43;100.00;101608.50;10526157;28;20515;-81
2023/05/16 00:17:39;;;;;;;8.13;2.87;;;;;;;8.36;100.00;101614.09;10529180;28;20040;-81
2023/05/16 00:22:40;;;;;;;10.63;3.45;;;;;;;8.32;100.00;101614.69;10529276;28;20738;-80
2023/05/16 00:27:41;;;;;;;8.68;5.05;;;;;;;8.32;100.00;101617.28;10528898;28;20040;-81
2023/05/16 00:32:42;;;;;;;5.55;2.42;;;;;;;8.23;100.00;101617.59;10528308;28;20505;-81
2023/05/16 00:37:42;;;;;;;10.38;4.20;;;;;;;8.22;100.00;101619.25;10527972;28;20039;-81
2023/05/16 00:42:43;;;;;;;9.48;2.88;;;;;;;8.11;100.00;101621.94;10529589;28;20123;-81
2023/05/16 00:47:43;;;;;;;9.82;3.40;;;;;;;8.04;100.00;101625.81;10519983;28;20127;-81
2023/05/16 00:52:44;;;;;;;12.13;3.40;;;;;;;8.01;100.00;101625.59;10528808;28;20094;-82
2023/05/16 00:57:44;;;;;;;12.52;4.53;;;;;;;8.01;100.00;101620.38;10527142;28;20036;-82
2023/05/16 01:02:45;;;;;;;19.02;4.40;;;;;;;8.01;100.00;101620.38;10525968;28;20076;-81
2023/05/16 01:07:46;;;;;;;10.60;2.67;;;;;;;7.98;100.00;101622.78;10530151;28;20040;-81
2023/05/16 01:13:05;;;;;;;12.38;3.53;;;;;;;7.92;100.00;101624.16;10508077;28;20119;-82
2023/05/16 01:18:13;;;;;;;11.52;2.88;;;;;;;7.87;100.00;101625.53;10521695;28;20068;-80
2023/05/16 01:23:17;;;;;;;12.55;4.80;;;;;;;7.80;100.00;101633.69;10528179;28;20094;-82
2023/05/16 01:28:17;;;;;;;8.23;4.00;;;;;;;7.68;100.00;101630.22;10528205;28;20086;-82
2023/05/16 01:33:18;;;;;;;11.50;4.07;;;;;;;7.50;100.00;101630.72;10528045;28;20046;-82
2023/05/16 01:38:25;;;;;;;20.15;5.20;;;;;;;7.24;100.00;101639.25;10527718;28;20077;-81
2023/05/16 01:43:42;;;;;;;16.17;3.70;;;;;;;6.96;100.00;101648.50;10526066;28;20033;-82
2023/05/16 01:49:06;;;;;;;16.55;3.95;;;;;;;6.80;100.00;101653.34;10525780;28;20514;-82
2023/05/16 01:54:09;;;;;;;11.88;4.05;;;;;;;6.72;100.00;101664.06;10514029;28;20089;-82
2023/05/16 01:59:09;;;;;;;10.05;3.25;;;;;;;6.57;100.00;101666.44;10525280;28;20154;-81
2023/05/16 02:04:10;;;;;;;14.00;5.28;;;;;;;6.35;100.00;101675.97;10509264;28;20040;-81
2023/05/16 02:09:10;;;;;;;13.20;5.10;;;;;;;6.24;100.00;101677.72;10522255;28;20127;-82
2023/05/16 02:14:11;;;;;;;12.93;5.20;;;;;;;6.19;100.00;101684.25;10525216;28;20451;-82
2023/05/16 02:19:11;;;;;;;16.95;5.15;;;;;;;6.09;100.00;101698.22;10521541;28;20049;-82
2023/05/16 02:24:12;;;;;;;17.00;7.43;;;;;;;5.97;100.00;101700.69;10523436;28;20064;-82
2023/05/16 02:29:13;;;;;;;13.40;4.00;;;;;;;5.85;100.00;101704.13;10524636;28;20555;-82
2023/05/16 02:34:15;;;;;;;13.77;3.90;;;;;;;5.75;100.00;101709.38;10524257;28;20121;-82
2023/05/16 02:39:15;;;;;;;13.33;5.37;;;;;;;5.70;100.00;101718.47;10525404;28;20069;-82
2023/05/16 02:44:16;;;;;;;19.83;7.32;;;;;;;5.64;100.00;101717.97;10524125;28;20120;-82
2023/05/16 02:49:16;;;;;;;13.20;6.55;;;;;;;5.62;100.00;101735.13;10524672;28;20052;-81
2023/05/16 02:54:17;;;;;;;18.52;5.07;;;;;;;5.52;100.00;101739.56;10523688;28;20075;-81
2023/05/16 02:59:18;;;;;;;18.45;5.70;;;;;;;5.34;100.00;101741.56;10524805;28;20053;-81
2023/05/16 03:04:18;;;;;;;30.58;6.47;;;;;;;5.19;100.00;101756.75;10522859;28;20480;-81
2023/05/16 03:09:19;;;;;;;13.63;5.53;;;;;;;5.10;100.00;101746.53;10524404;28;20395;-81
2023/05/16 03:14:20;;;;;;;13.70;4.65;;;;;;;5.03;100.00;101752.00;10522810;28;20051;-81
2023/05/16 03:19:20;;;;;;;14.13;4.60;;;;;;;4.80;100.00;101755.22;10512087;28;20040;-82
2023/05/16 03:24:21;;;;;;;43.65;6.18;;;;;;;4.68;100.00;101762.88;10520796;28;20135;-81
2023/05/16 03:29:22;;;;;;;27.67;6.38;;;;;;;4.66;100.00;101762.72;10524670;28;20131;-89
2023/05/16 03:34:23;;;;;;;16.75;6.40;;;;;;;4.64;100.00;101768.56;10505948;28;20040;-83
2023/05/16 03:39:24;;;;;;;15.10;6.30;;;;;;;4.61;100.00;101769.19;10522693;28;20135;-81
2023/05/16 03:44:24;;;;;;;16.35;5.25;;;;;;;4.69;100.00;101782.84;10522507;28;20369;-80
2023/05/16 03:49:27;;;;;;;23.27;7.75;;;;;;;4.70;100.00;101788.16;10531557;28;20189;-80
2023/05/16 03:54:27;;;;;;;30.08;7.57;;;;;;;4.83;100.00;101792.72;10532846;28;20043;-81
2023/05/16 03:59:28;;;;;;;19.95;6.53;;;;;;;4.98;100.00;101810.38;10529861;28;20119;-80
2023/05/16 04:04:28;;;;;;;20.60;6.68;;;;;;;5.16;100.00;101815.31;10531714;28;20046;-79
2023/05/16 04:09:29;;;;;;;16.23;5.13;;;;;;;5.28;100.00;101808.56;10530993;28;20113;-79
2023/05/16 04:14:30;;;;;;;15.15;5.82;;;;;;;5.41;100.00;101823.47;10532334;28;20055;-79
2023/05/16 04:19:31;;;;;;;14.82;5.13;;;;;;;5.56;100.00;101829.03;10529559;28;20044;-81
2023/05/16 04:24:31;;;;;;;12.27;5.82;;;;;;;5.83;100.00;101829.50;10531428;28;20403;-81
2023/05/16 04:29:32;;;;;;;9.85;3.97;;;;;;;6.16;100.00;101833.09;10530294;28;20040;-82
2023/05/16 04:34:36;;;;;;;18.05;4.07;;;;;;;6.43;100.00;101829.19;10530374;28;20106;-82
2023/05/16 04:39:36;;;;;;;17.83;5.78;;;;;;;6.61;100.00;101828.81;10515757;28;20071;-81
2023/05/16 04:44:37;;;;;;;15.00;4.80;;;;;;;6.79;100.00;101828.47;10526767;28;20051;-82
2023/05/16 04:49:37;;;;;;;13.65;4.10;;;;;;;6.95;100.00;101828.88;10525537;28;20539;-82
2023/05/16 04:54:38;;;;;;;18.77;5.60;;;;;;;7.11;100.00;101812.75;10522402;28;20040;-82
2023/05/16 04:59:39;;;;;;;13.65;5.40;;;;;;;7.33;100.00;101815.28;10526160;28;20032;-81
2023/05/16 05:04:45;;;;;;;15.05;4.60;;;;;;;7.44;100.00;101810.91;10525007;28;20074;-82
2023/05/16 05:09:46;;;;;;;15.27;3.92;;;;;;;7.44;100.00;101816.13;10525024;28;20048;-81
2023/05/16 05:14:46;;;;;;;17.30;3.55;;;;;;;7.44;100.00;101818.72;10525860;28;20040;-87
2023/05/16 05:19:47;;;;;;;17.23;6.15;;;;;;;7.45;100.00;101827.44;10504215;28;20054;-83
2023/05/16 05:24:48;;;;;;;8.45;3.05;;;;;;;7.78;100.00;101834.28;10525482;28;20127;-84
2023/05/16 05:29:48;;;;;;;7.50;3.78;;;;;;;8.47;100.00;101839.22;10527317;28;20376;-84
2023/05/16 05:34:49;;;;;;;22.52;6.07;;;;;;;8.65;100.00;101837.94;10526298;28;20130;-84
2023/05/16 05:39:50;;;;;;;13.03;4.53;;;;;;;8.61;100.00;101829.78;10527229;28;20044;-83
2023/05/16 05:44:51;;;;;;;6.45;3.45;;;;;;;9.21;100.00;101836.59;10526683;28;20475;-84
2023/05/16 05:49:51;;;;;;;15.30;3.63;;;;;;;9.70;100.00;101844.22;10527617;28;20040;-83
2023/05/16 05:54:52;;;;;;;15.45;3.60;;;;;;;9.61;100.00;101840.09;10507232;28;20032;-83
2023/05/16 05:59:52;;;;;;;9.90;4.18;;;;;;;9.93;100.00;101846.56;10514987;28;20131;-83
2023/05/16 06:04:53;;;;;;;19.27;4.88;;;;;;;12.00;100.00;101840.03;10521259;28;20750;-85
2023/05/16 06:09:53;;;;;;;15.75;5.45;;;;;;;12.46;100.00;101846.09;10523304;28;20046;-84
2023/05/16 06:14:54;;;;;;;8.50;3.20;;;;;;;13.50;100.00;101843.75;10519610;28;20036;-85
2023/05/16 06:19:55;;;;;;;15.40;4.93;;;;;;;12.76;100.00;101846.88;10522436;28;20181;-83
2023/05/16 06:24:55;;;;;;;13.60;2.90;;;;;;;13.89;100.00;101854.47;10523159;28;20068;-83
2023/05/16 06:29:56;;;;;;;7.00;2.92;;;;;;;15.11;100.00;101861.97;10526463;28;20043;-83
2023/05/16 06:34:56;;;;;;;9.25;3.58;;;;;;;15.09;100.00;101852.19;10518834;28;20048;-83
2023/05/16 06:39:58;;;;;;;12.20;2.63;;;;;;;16.54;95.82;101859.09;10521113;28;20036;-86
2023/05/16 06:44:58;;;;;;;4.70;2.38;;;;;;;17.20;88.14;101851.88;10523954;28;20032;-90
2023/05/16 06:49:59;;;;;;;5.97;3.03;;;;;;;16.81;83.21;101863.63;10487950;28;20119;-90
2023/05/16 06:55:02;;;;;;;9.67;3.50;;;;;;;17.25;84.00;101852.94;10490126;28;20032;-90
2023/05/16 07:00:03;;;;;;;10.27;3.85;;;;;;;17.50;82.57;101848.50;10505242;28;20130;-88
2023/05/16 07:05:05;;;;;;;6.93;2.40;;;;;;;16.38;84.20;101857.59;10498198;28;20066;-83
2023/05/16 07:10:06;;;;;;;9.55;3.10;;;;;;;16.17;87.25;101858.53;10518395;28;20118;-85
2023/05/16 07:15:07;;;;;;;11.50;3.07;;;;;;;15.45;81.87;101864.31;10525588;28;20039;-86
2023/05/16 07:20:12;;;;;;;10.38;3.35;;;;;;;15.70;89.38;101864.53;10524945;28;20379;-86
2023/05/16 07:25:14;;;;;;;8.55;2.40;;;;;;;14.71;88.89;101873.31;10519344;28;20483;-86
2023/05/16 07:30:14;;;;;;;12.70;3.92;;;;;;;14.17;100.00;101871.63;10516039;28;20381;-85
2023/05/16 07:35:15;;;;;;;11.85;2.55;;;;;;;15.02;95.39;101877.38;10505963;28;20040;-91
2023/05/16 07:40:17;;;;;;;6.00;2.03;;;;;;;13.99;93.52;101886.50;10520712;28;20074;-89
2023/05/16 07:45:18;;;;;;;8.90;2.40;;;;;;;15.94;81.71;101874.34;10517287;28;20414;-84
2023/05/16 07:50:18;;;;;;;4.90;1.83;;;;;;;18.26;75.59;101864.28;10515696;28;20052;-88
2023/05/16 07:55:20;;;;;;;7.97;1.80;;;;;;;20.30;68.01;101866.38;10509044;28;20625;-88
2023/05/16 08:00:21;;;;;;;8.57;2.17;;;;;;;17.42;66.22;101878.25;10520596;28;20055;-89
2023/05/16 08:05:22;;;;;;;6.72;2.92;;;;;;;15.73;82.29;101883.97;10501333;28;20044;-88
2023/05/16 08:10:23;;;;;;;9.80;3.10;;;;;;;17.08;75.09;101882.31;10523004;28;20472;-87
2023/05/16 08:15:25;;;;;;;6.43;1.40;;;;;;;19.76;64.87;101870.34;10503146;28;20118;-88
2023/05/16 08:20:26;;;;;;;4.10;2.83;;;;;;;21.34;55.91;101875.69;10489020;28;20546;-87
2023/05/16 08:25:26;;;;;;;13.67;2.47;;;;;;;20.66;54.71;101872.47;10506709;28;20032;-87
2023/05/16 08:30:27;;;;;;;12.93;2.20;;;;;;;16.35;64.50;101889.19;10524092;28;20067;-86
2023/05/16 08:35:27;;;;;;;10.85;2.10;;;;;;;16.49;69.44;101879.13;10531063;28;20115;-86
2023/05/16 08:40:28;;;;;;;4.30;1.85;;;;;;;15.45;73.54;101890.69;10513774;28;20126;-86
2023/05/16 08:45:29;;;;;;;9.77;1.98;;;;;;;14.15;78.73;101893.41;10513459;28;20387;-85
2023/05/16 08:50:30;;;;;;;8.20;2.20;;;;;;;15.46;88.90;101882.81;10530641;28;20032;-85
2023/05/16 08:55:31;;;;;;;12.20;2.93;;;;;;;16.39;74.07;101877.88;10512091;28;20040;-85
2023/05/16 09:00:31;;;;;;;8.57;1.95;;;;;;;14.79;78.06;101885.13;10530768;28;20527;-85
2023/05/16 09:05:32;;;;;;;12.02;1.67;;;;;;;13.59;82.35;101881.03;10531574;28;20131;-84
2023/05/16 09:10:32;;;;;;;4.30;1.85;;;;;;;14.20;86.61;101890.22;10528746;28;20054;-85
2023/05/16 09:15:33;;;;;;;8.48;1.95;;;;;;;16.83;76.93;101868.16;10530096;28;20497;-84
2023/05/16 09:20:33;;;;;;;8.23;1.95;;;;;;;18.61;65.59;101878.66;10529748;28;20040;-84
2023/05/16 09:25:34;;;;;;;6.38;1.67;;;;;;;18.79;63.40;101874.75;10529952;28;20473;-86
2023/05/16 09:30:36;;;;;;;8.95;1.65;;;;;;;18.18;62.69;101870.22;10528179;28;20415;-86
2023/05/16 09:35:36;;;;;;;8.75;1.73;;;;;;;19.88;56.01;101873.31;10529454;28;20089;-84
2023/05/16 09:40:39;;;;;;;5.32;1.25;;;;;;;21.81;51.90;101874.75;10529620;28;20047;-85
2023/05/16 09:45:40;;;;;;;3.10;1.08;;;;;;;21.00;46.71;101864.38;10511059;28;20399;-85
2023/05/16 09:50:41;;;;;;;2.70;1.00;;;;;;;18.36;53.91;101869.00;10510509;28;20052;-86
2023/05/16 09:55:42;;;;;;;8.85;1.70;;;;;;;16.69;60.70;101870.25;10511122;28;20493;-84
2023/05/16 10:00:42;;;;;;;5.53;1.50;;;;;;;16.01;63.43;101880.75;10527357;28;20122;-85
2023/05/16 10:05:43;;;;;;;4.63;1.40;;;;;;;15.02;69.32;101873.81;10510482;28;20535;-84
2023/05/16 10:10:43;;;;;;;5.75;1.52;;;;;;;14.95;71.85;101870.03;10527507;28;20040;-84
2023/05/16 10:15:44;;;;;;;2.63;1.15;;;;;;;17.14;71.56;101857.81;10509914;28;20055;-85
2023/05/16 10:20:47;;;;;;;8.20;1.45;;;;;;;21.17;54.46;101852.28;10509641;28;20024;-84
2023/05/16 10:25:48;;;;;;;6.05;1.05;;;;;;;18.22;57.69;101855.34;10509137;28;20032;-85
2023/05/16 10:30:49;;;;;;;5.93;1.70;;;;;;;15.96;63.55;101870.03;10510200;28;20044;-84
2023/05/16 10:35:49;;;;;;;7.63;2.03;;;;;;;17.96;70.77;101862.41;10525469;28;20122;-85
2023/05/16 10:40:50;;;;;;;4.97;1.30;;;;;;;21.66;57.84;101846.97;10527549;28;20513;-88
2023/05/16 10:46:10;;;;;;;3.38;1.30;;;;;;;22.62;48.70;101849.34;10524449;28;20047;-85
2023/05/16 10:51:35;;;;;;;3.60;1.20;;;;;;;19.00;53.87;101852.38;10510225;28;20044;-86
2023/05/16 10:56:35;;;;;;;4.32;1.40;;;;;;;16.62;59.32;101848.81;10509210;28;20500;-84
2023/05/16 11:01:36;;;;;;;2.95;1.02;;;;;;;15.75;68.48;101862.06;10525812;28;20040;-85
2023/05/16 11:06:39;;;;;;;7.15;2.08;;;;;;;15.60;66.49;101861.41;10492015;28;20063;-85
2023/05/16 11:11:45;;;;;;;4.97;1.67;;;;;;;15.88;77.20;101874.09;10525843;28;20038;-85
2023/05/16 11:17:09;;;;;;;4.95;0.93;;;;;;;19.89;63.17;101867.16;10526785;28;20043;-85
2023/05/16 11:22:16;;;;;;;2.47;0.88;;;;;;;20.95;55.61;101853.63;10508761;28;20059;-84
2023/05/16 11:27:21;;;;;;;4.22;1.45;;;;;;;21.03;49.04;101843.13;10508575;28;20075;-85
2023/05/16 11:32:22;;;;;;;6.22;1.60;;;;;;;21.35;50.90;101857.06;10524650;28;20043;-84
2023/05/16 11:37:22;;;;;;;5.50;1.40;;;;;;;22.22;45.04;101855.88;10507736;28;20028;-85
2023/05/16 11:42:23;;;;;;;4.70;1.20;;;;;;;20.62;45.56;101847.59;10524535;28;20151;-85
2023/05/16 11:47:23;;;;;;;3.57;1.20;;;;;;;18.92;50.87;101858.34;10525578;28;20079;-86
2023/05/16 11:52:25;;;;;;;2.20;1.13;;;;;;;17.01;54.20;101862.66;10524228;28;20119;-86
2023/05/16 11:57:25;;;;;;;4.40;1.27;;;;;;;15.83;60.65;101871.19;10523298;28;20119;-85
2023/05/16 12:02:28;;;;;;;3.72;1.48;;;;;;;17.06;62.77;101860.22;10525397;28;20127;-83
2023/05/16 12:07:28;;;;;;;3.25;1.17;;;;;;;19.86;53.86;101863.53;10525242;28;20043;-87
2023/05/16 12:12:29;;;;;;;2.78;0.65;;;;;;;21.06;49.60;101852.06;10531147;28;20047;-84
2023/05/16 12:17:29;;;;;;;2.22;0.80;;;;;;;20.13;50.32;101844.72;10514006;28;20078;-86
2023/05/16 12:22:30;;;;;;;4.13;1.38;;;;;;;22.27;48.73;101843.50;10530902;28;20117;-86
2023/05/16 12:27:31;;;;;;;5.60;1.57;;;;;;;21.85;48.05;101845.53;10532743;28;20048;-86
2023/05/16 12:32:36;;;;;;;2.23;0.97;;;;;;;21.94;48.98;101836.78;10529828;28;20051;-86
2023/05/16 12:37:36;;;;;;;2.78;1.05;;;;;;;22.92;44.00;101832.84;10530945;28;20085;-87
2023/05/16 12:42:37;;;;;;;10.20;1.53;;;;;;;19.39;46.58;101846.41;10512811;28;20547;-86
2023/05/16 12:47:37;;;;;;;4.32;1.15;;;;;;;19.27;47.88;101848.72;10529900;28;20151;-87
2023/05/16 12:52:45;;;;;;;5.40;1.40;;;;;;;19.29;51.69;101849.66;10529166;28;20130;-86
2023/05/16 12:57:49;;;;;;;2.92;1.05;;;;;;;19.63;46.93;101848.78;10529822;28;20039;-86
2023/05/16 13:02:49;;;;;;;7.05;1.92;;;;;;;18.12;50.11;101854.13;10513166;28;20430;-86
2023/05/16 13:07:53;;;;;;;4.68;1.10;;;;;;;17.24;49.67;101857.31;10511858;28;20072;-81
2023/05/16 13:12:57;;;;;;;3.53;1.30;;;;;;;16.25;55.46;101864.13;10508505;28;20106;-85
2023/05/16 13:17:57;;;;;;;2.45;1.10;;;;;;;15.80;59.27;101878.09;10527908;28;20047;-84
2023/05/16 13:22:58;;;;;;;3.45;1.20;;;;;;;15.71;60.97;101871.59;10529126;28;20106;-85
2023/05/16 13:27:58;;;;;;;5.38;1.45;;;;;;;15.59;63.12;101885.97;10530318;28;20425;-84
2023/05/16 13:32:59;;;;;;;5.32;1.38;;;;;;;16.03;65.54;101881.72;10528009;28;20032;-85
2023/05/16 13:37:59;;;;;;;9.35;2.67;;;;;;;16.57;65.98;101885.63;10528289;28;20387;-84
2023/05/16 13:43:00;;;;;;;3.83;1.15;;;;;;;16.35;64.34;101879.50;10494425;28;20124;-83
2023/05/16 13:48:00;;;;;;;5.70;2.33;;;;;;;16.25;66.69;101886.16;10528834;28;20117;-86
2023/05/16 13:53:01;;;;;;;1.95;1.15;;;;;;;16.47;64.16;101894.94;10527744;28;20067;-86
2023/05/16 13:58:02;;;;;;;4.78;1.95;;;;;;;16.17;62.86;101894.59;10528982;28;20059;-86
2023/05/16 14:03:02;;;;;;;4.30;1.30;;;;;;;16.03;65.37;101899.31;10530346;28;20064;-85
2023/05/16 14:08:03;;;;;;;4.50;1.40;;;;;;;16.21;63.63;101910.66;10525523;28;20052;-84
2023/05/16 14:13:03;;;;;;;7.18;1.77;;;;;;;16.05;68.07;101921.41;10528794;28;20093;-84
2023/05/16 14:18:05;;;;;;;8.93;1.52;;;;;;;16.14;68.48;101916.50;10525639;28;20069;-83
2023/05/16 14:23:05;;;;;;;8.95;2.05;;;;;;;16.52;66.91;101925.09;10528461;28;20066;-85
2023/05/16 14:28:06;;;;;;;6.75;1.27;;;;;;;16.59;66.35;101928.88;10526138;28;20040;-85
2023/05/16 14:33:06;;;;;;;12.27;2.72;;;;;;;16.08;66.12;101929.47;10524663;28;20130;-82
2023/05/16 14:38:07;;;;;;;5.90;1.45;;;;;;;15.52;66.90;101935.84;10510344;28;20067;-85
2023/05/16 14:43:07;;;;;;;4.45;2.55;;;;;;;15.21;68.47;101936.22;10509317;28;20063;-85
2023/05/16 14:48:08;;;;;;;8.38;2.13;;;;;;;15.32;68.88;101941.97;10525182;28;20028;-85
2023/05/16 14:53:08;;;;;;;8.52;1.48;;;;;;;15.22;68.54;101940.66;10526748;28;20059;-85
2023/05/16 14:58:09;;;;;;;8.00;1.98;;;;;;;14.94;70.25;101947.28;10525854;28;20119;-85
2023/05/16 15:03:10;;;;;;;7.38;1.70;;;;;;;14.75;72.05;101951.69;10526644;28;20111;-84
2023/05/16 15:08:10;;;;;;;7.03;2.25;;;;;;;14.47;73.96;101945.06;10524978;28;20063;-83
2023/05/16 15:13:11;;;;;;;6.47;1.52;;;;;;;14.34;76.61;101951.44;10520936;28;20119;-84
2023/05/16 15:18:11;;;;;;;6.80;2.58;;;;;;;14.68;75.89;101950.44;10506890;28;20055;-84
2023/05/16 15:23:12;;;;;;;9.15;2.40;;;;;;;15.00;73.80;101949.28;10495709;28;20047;-84
2023/05/16 15:28:12;;;;;;;7.82;1.88;;;;;;;15.08;75.03;101945.28;10524166;28;20032;-84
2023/05/16 15:33:14;;;;;;;4.30;1.65;;;;;;;15.07;75.04;101944.41;10508381;28;20131;-85
2023/05/16 15:38:14;;;;;;;3.47;1.55;;;;;;;15.04;76.21;101944.25;10490061;28;20040;-84
2023/05/16 15:43:15;;;;;;;8.32;2.55;;;;;;;14.96;77.20;101950.91;10516828;28;20466;-86
2023/05/16 15:48:15;;;;;;;5.05;1.92;;;;;;;14.81;77.00;101953.69;10515124;28;20067;-86
2023/05/16 15:53:16;;;;;;;6.13;1.95;;;;;;;14.70;78.84;101960.19;10515079;28;20528;-83
2023/05/16 15:58:16;;;;;;;6.78;1.80;;;;;;;14.59;78.33;101968.44;10507931;28;20535;-84
2023/05/16 16:03:17;;;;;;;5.28;2.10;;;;;;;14.34;78.05;101954.06;10507571;28;20039;-84
2023/05/16 16:08:18;;;;;;;4.72;1.10;;;;;;;14.00;80.88;101968.16;10510989;28;20042;-84
2023/05/16 16:13:20;;;;;;;7.43;3.83;;;;;;;13.65;82.42;101965.53;10498714;28;20040;-85
2023/05/16 16:18:20;;;;;;;3.63;1.27;;;;;;;13.53;87.44;101978.03;10525334;28;20446;-84
2023/05/16 16:23:21;;;;;;;3.92;1.58;;;;;;;13.55;87.64;101968.50;10511534;28;20119;-83
2023/05/16 16:28:21;;;;;;;4.30;1.70;;;;;;;13.38;86.14;101964.91;10515770;28;20036;-84
2023/05/16 16:33:22;;;;;;;5.13;1.55;;;;;;;13.22;87.78;101965.81;10511040;28;20081;-83
2023/05/16 16:38:22;;;;;;;4.93;2.03;;;;;;;12.99;89.66;101967.16;10519683;28;20048;-84
2023/05/16 16:43:23;;;;;;;5.22;1.83;;;;;;;12.73;98.55;101971.88;10521004;28;20052;-85
2023/05/16 16:48:24;;;;;;;5.45;2.95;;;;;;;12.57;99.35;101975.38;10512716;28;20066;-83
2023/05/16 16:53:25;;;;;;;5.40;1.87;;;;;;;12.56;100.00;101982.31;10530491;28;20044;-83
2023/05/16 16:58:26;;;;;;;5.90;1.80;;;;;;;12.56;100.00;101987.56;10512705;28;20052;-83
2023/05/16 17:03:26;;;;;;;7.45;2.53;;;;;;;12.61;100.00;101982.59;10484562;28;20454;-84
2023/05/16 17:08:27;;;;;;;10.13;2.35;;;;;;;12.68;100.00;101986.47;10526417;28;20071;-84
2023/05/16 17:13:32;;;;;;;5.70;1.75;;;;;;;12.62;100.00;101987.94;10520184;28;20155;-82
2023/05/16 17:18:34;;;;;;;5.55;1.77;;;;;;;12.50;100.00;101991.59;10526621;28;20047;-82
2023/05/16 17:23:35;;;;;;;14.10;2.80;;;;;;;12.52;100.00;101993.47;10530084;28;20036;-82
2023/05/16 17:28:35;;;;;;;5.78;1.65;;;;;;;12.55;100.00;101998.00;10525351;28;20512;-82
2023/05/16 17:33:36;;;;;;;9.15;2.72;;;;;;;12.45;100.00;101999.19;10528944;28;20059;-82
2023/05/16 17:38:37;;;;;;;3.20;1.23;;;;;;;12.31;100.00;102001.91;10526594;28;20063;-82
2023/05/16 17:43:37;;;;;;;6.45;3.60;;;;;;;12.27;100.00;102010.41;10510393;28;20081;-82
2023/05/16 17:48:38;;;;;;;11.23;3.20;;;;;;;12.15;100.00;102009.69;10508733;28;20502;-83
2023/05/16 17:53:38;;;;;;;10.73;2.55;;;;;;;11.90;100.00;102008.19;10507946;28;20115;-82
2023/05/16 17:58:39;;;;;;;11.55;2.50;;;;;;;11.78;100.00;102017.94;10520997;28;20135;-82
2023/05/16 18:03:42;;;;;;;5.57;1.65;;;;;;;11.72;100.00;102016.75;10510069;28;20096;-81
2023/05/16 18:08:42;;;;;;;4.45;1.50;;;;;;;11.65;100.00;102019.78;10518773;28;20039;-84
2023/05/16 18:13:43;;;;;;;5.15;1.98;;;;;;;11.62;100.00;102037.06;10510426;28;20154;-82
2023/05/16 18:18:43;;;;;;;13.02;3.90;;;;;;;11.48;100.00;102023.09;10506971;28;20119;-82
2023/05/16 18:23:44;;;;;;;5.97;2.05;;;;;;;11.46;100.00;102031.75;10486268;28;20104;-86
2023/05/16 18:28:45;;;;;;;12.15;3.83;;;;;;;11.47;100.00;102030.06;10515080;28;20044;-85
2023/05/16 18:33:45;;;;;;;7.57;2.13;;;;;;;11.39;100.00;102039.16;10496168;28;20110;-84
2023/05/16 18:38:46;;;;;;;7.53;1.98;;;;;;;11.30;100.00;102043.00;10521061;28;20105;-85
2023/05/16 18:43:46;;;;;;;10.00;2.30;;;;;;;11.15;100.00;102042.94;10517034;28;20039;-83
2023/05/16 18:48:47;;;;;;;12.93;2.20;;;;;;;11.07;100.00;102044.16;10461566;28;20157;-81
2023/05/16 18:53:47;;;;;;;7.20;2.60;;;;;;;10.97;100.00;102047.91;10512568;28;20511;-84
2023/05/16 18:58:48;;;;;;;6.35;2.20;;;;;;;10.87;100.00;102046.38;10521996;28;20436;-81
2023/05/16 19:03:48;;;;;;;10.07;1.92;;;;;;;10.82;100.00;102052.13;10517204;28;20036;-83
2023/05/16 19:08:49;;;;;;;8.10;2.22;;;;;;;10.74;100.00;102049.00;10496604;28;20483;-88
2023/05/16 19:13:49;;;;;;;13.63;2.25;;;;;;;10.70;100.00;102052.22;10492372;28;20036;-87
2023/05/16 19:18:50;;;;;;;7.10;1.50;;;;;;;10.70;100.00;102053.16;10516375;28;20040;-87
2023/05/16 19:23:51;;;;;;;19.10;3.50;;;;;;;10.65;100.00;102059.78;10515402;28;20123;-87
2023/05/16 19:28:51;;;;;;;9.70;1.85;;;;;;;10.61;100.00;102064.69;10512520;28;20074;-87
2023/05/16 19:33:52;;;;;;;7.43;2.17;;;;;;;10.55;100.00;102067.84;10524213;28;20032;-87
2023/05/16 19:38:52;;;;;;;9.50;2.13;;;;;;;10.38;100.00;102061.41;10523889;28;20070;-87
2023/05/16 19:43:53;;;;;;;6.63;1.67;;;;;;;10.26;100.00;102067.63;10522422;28;20123;-86
2023/05/16 19:48:53;;;;;;;3.55;1.42;;;;;;;10.14;100.00;102072.94;10505769;28;20115;-88
2023/05/16 19:53:54;;;;;;;8.15;2.33;;;;;;;9.99;100.00;102088.47;10516676;28;20032;-88
2023/05/16 19:58:54;;;;;;;7.28;2.08;;;;;;;9.86;100.00;102088.41;10513538;28;20530;-88
2023/05/16 20:03:55;;;;;;;10.63;2.47;;;;;;;9.74;100.00;102098.00;10521778;28;20071;-87
2023/05/16 20:08:55;;;;;;;6.97;2.80;;;;;;;9.72;100.00;102104.84;10520278;28;20032;-87
2023/05/16 20:13:58;;;;;;;13.13;4.03;;;;;;;9.61;100.00;102112.81;10497960;28;20131;-87
2023/05/16 20:18:58;;;;;;;4.15;2.08;;;;;;;9.40;100.00;102107.88;10512789;28;20066;-87
2023/05/16 20:23:59;;;;;;;9.85;2.22;;;;;;;9.27;100.00;102119.94;10504568;28;20127;-87
2023/05/16 20:29:03;;;;;;;6.35;2.30;;;;;;;9.18;100.00;102126.31;10524974;28;20043;-88
2023/05/16 20:34:03;;;;;;;4.75;2.72;;;;;;;9.30;100.00;102123.66;10531272;28;20551;-86
2023/05/16 20:39:05;;;;;;;5.65;2.03;;;;;;;9.50;100.00;102140.81;10530072;28;20085;-86
2023/05/16 20:44:06;;;;;;;6.57;2.15;;;;;;;9.62;100.00;102134.66;10501726;28;20739;-86
2023/05/16 20:49:07;;;;;;;4.20;1.60;;;;;;;9.72;100.00;102141.44;10513732;28;20115;-87
2023/05/16 20:54:07;;;;;;;8.57;2.72;;;;;;;9.61;100.00;102136.34;10514322;28;20073;-85
2023/05/16 20:59:08;;;;;;;8.73;4.00;;;;;;;9.25;100.00;102136.41;10507440;28;20063;-86
2023/05/16 21:04:09;;;;;;;5.55;2.80;;;;;;;8.85;100.00;102141.28;10512783;28;20122;-86
2023/05/16 21:09:09;;;;;;;5.30;2.05;;;;;;;8.45;100.00;102148.66;10506547;28;20044;-86
2023/05/16 21:14:10;;;;;;;8.23;3.13;;;;;;;8.16;100.00;102156.03;10509003;28;20033;-86
2023/05/16 21:19:10;;;;;;;6.35;3.70;;;;;;;8.19;100.00;102158.00;10517176;28;20048;-86
2023/05/16 21:24:11;;;;;;;7.65;3.70;;;;;;;8.48;100.00;102164.56;10525351;28;20067;-86
2023/05/16 21:29:11;;;;;;;6.97;3.42;;;;;;;8.71;100.00;102171.56;10528635;28;20554;-86
2023/05/16 21:34:12;;;;;;;6.80;2.78;;;;;;;8.82;100.00;102164.56;10529101;28;20131;-86
2023/05/16 21:39:12;;;;;;;6.72;3.38;;;;;;;8.86;100.00;102169.22;10527553;28;20119;-85
2023/05/16 21:44:15;;;;;;;6.25;2.50;;;;;;;8.87;100.00;102168.41;10527715;28;20040;-84
2023/05/16 21:49:16;;;;;;;6.45;2.70;;;;;;;8.63;100.00;102167.44;10524122;28;20039;-86
2023/05/16 21:54:16;;;;;;;4.88;2.17;;;;;;;8.21;100.00;102172.06;10527451;28;20123;-86
2023/05/16 21:59:17;;;;;;;6.72;3.25;;;;;;;7.80;100.00;102183.63;10527135;28;20115;-85
2023/05/16 22:04:17;;;;;;;6.47;2.60;;;;;;;7.47;100.00;102185.31;10527673;28;20123;-86
2023/05/16 22:09:18;;;;;;;4.80;2.80;;;;;;;7.16;100.00;102195.84;10501551;28;20074;-86
2023/05/16 22:14:18;;;;;;;12.90;4.43;;;;;;;6.92;100.00;102194.72;10527769;28;20494;-86
2023/05/16 22:19:19;;;;;;;9.13;4.20;;;;;;;6.65;100.00;102202.91;10526380;28;20135;-86
2023/05/16 22:24:19;;;;;;;11.00;4.88;;;;;;;6.49;100.00;102202.38;10527098;28;20060;-86
2023/05/16 22:29:20;;;;;;;9.63;4.95;;;;;;;6.40;100.00;102207.72;10528058;28;20048;-85
2023/05/16 22:34:20;;;;;;;8.25;4.50;;;;;;;6.24;100.00;102216.78;10525902;28;20073;-83
2023/05/16 22:39:21;;;;;;;5.88;4.03;;;;;;;6.11;100.00;102225.19;10526190;28;20078;-86
2023/05/16 22:44:21;;;;;;;8.50;4.93;;;;;;;5.97;100.00;102236.03;10525453;28;20479;-85
2023/05/16 22:49:22;;;;;;;12.10;4.97;;;;;;;5.90;100.00;102237.19;10526151;28;20116;-85
2023/05/16 22:54:22;;;;;;;19.30;7.53;;;;;;;5.83;100.00;102246.13;10522168;28;20043;-86
2023/05/16 22:59:23;;;;;;;13.57;5.32;;;;;;;5.76;100.00;102248.94;10507756;28;20994;-86